Time;durP1;ratioP1;P1;durP2;ratioP2;P2;SDS_P1;SDS_P2;PMS_P1;PMS_P2;Temp;Humidity;BMP_temperature;BMP_pressure;BME280_temperature;BME280_humidity;BME280_pressure;Samples;Min_cycle;Max_cycle;Signal;HPM_P1;HPM_P2
2022/06/26 00:01:25;;;;;;;12.30;11.00;;;18.70;89.90;;;;;;5077167;28;20230;-85
2022/06/26 00:03:50;;;;;;;12.68;10.68;;;18.70;89.80;;;;;;5077307;28;20167;-87
2022/06/26 00:06:16;;;;;;;11.23;10.13;;;18.60;89.90;;;;;;5077632;28;20171;-86
2022/06/26 00:08:42;;;;;;;10.65;9.57;;;18.70;89.80;;;;;;5077305;28;20176;-87
2022/06/26 00:11:07;;;;;;;11.38;10.25;;;18.70;89.70;;;;;;5077212;28;20183;-87
2022/06/26 00:13:33;;;;;;;11.63;10.43;;;18.70;89.50;;;;;;5077254;28;20652;-87
2022/06/26 00:15:59;;;;;;;14.25;11.07;;;18.70;89.60;;;;;;5077068;28;20170;-86
2022/06/26 00:18:24;;;;;;;12.85;11.52;;;18.50;89.60;;;;;;5077283;28;20175;-86
2022/06/26 00:20:50;;;;;;;13.63;11.35;;;18.30;89.70;;;;;;5077101;28;20227;-87
2022/06/26 00:23:15;;;;;;;13.85;12.13;;;18.30;90.00;;;;;;5076930;28;20171;-86
2022/06/26 00:25:41;;;;;;;14.13;12.40;;;18.20;90.20;;;;;;5076851;28;20568;-87
2022/06/26 00:28:06;;;;;;;14.18;12.57;;;18.30;90.50;;;;;;5076919;28;20172;-86
2022/06/26 00:30:32;;;;;;;14.48;12.93;;;18.20;90.60;;;;;;5076898;28;20190;-86
2022/06/26 00:32:58;;;;;;;15.05;13.55;;;18.20;90.80;;;;;;5076812;28;20645;-87
2022/06/26 00:35:23;;;;;;;14.68;13.13;;;18.10;90.90;;;;;;5077130;28;20577;-87
2022/06/26 00:37:49;;;;;;;21.05;13.10;;;18.10;91.00;;;;;;5077284;28;20578;-86
2022/06/26 00:40:15;;;;;;;20.25;14.18;;;18.00;90.90;;;;;;5077046;28;20202;-86
2022/06/26 00:42:41;;;;;;;16.73;11.93;;;18.10;91.00;;;;;;5077144;28;20190;-86
2022/06/26 00:45:08;;;;;;;13.38;11.10;;;18.10;91.10;;;;;;5076596;28;20294;-86
2022/06/26 00:47:33;;;;;;;12.98;11.57;;;18.20;91.00;;;;;;5076156;28;20164;-86
2022/06/26 00:49:59;;;;;;;12.90;11.57;;;18.20;90.80;;;;;;5076620;28;20209;-86
2022/06/26 00:52:27;;;;;;;15.80;11.05;;;18.20;90.70;;;;;;5076935;28;20172;-87
2022/06/26 00:54:53;;;;;;;19.95;10.25;;;18.10;90.60;;;;;;5076554;28;20172;-86
2022/06/26 00:57:20;;;;;;;16.98;11.00;;;18.20;90.60;;;;;;5076636;28;20569;-86
2022/06/26 00:59:47;;;;;;;16.23;10.20;;;18.20;90.50;;;;;;5076311;28;20176;-86
2022/06/26 01:02:13;;;;;;;16.50;11.65;;;18.10;90.20;;;;;;5076529;28;20189;-86
2022/06/26 01:04:38;;;;;;;14.13;10.30;;;18.00;90.30;;;;;;5076531;28;20591;-86
2022/06/26 01:07:05;;;;;;;11.85;9.68;;;18.00;90.40;;;;;;5076872;28;20175;-86
2022/06/26 01:09:31;;;;;;;14.77;11.45;;;18.20;90.40;;;;;;5076852;28;20698;-86
2022/06/26 01:11:57;;;;;;;14.18;10.98;;;18.10;90.20;;;;;;5076093;28;20240;-86
2022/06/26 01:14:23;;;;;;;15.10;11.55;;;18.10;90.30;;;;;;5074998;28;20171;-86
2022/06/26 01:16:49;;;;;;;13.55;12.18;;;18.10;90.40;;;;;;5076656;28;20266;-86
2022/06/26 01:19:17;;;;;;;16.63;13.43;;;18.00;90.60;;;;;;5076468;28;20176;-86
2022/06/26 01:21:43;;;;;;;21.13;11.90;;;18.10;90.70;;;;;;5076706;28;20191;-87
2022/06/26 01:24:09;;;;;;;15.68;11.70;;;18.20;90.80;;;;;;5076187;28;20214;-86
2022/06/26 01:26:36;;;;;;;22.35;12.65;;;18.10;90.50;;;;;;5076517;28;20176;-86
2022/06/26 01:29:03;;;;;;;14.45;11.52;;;17.90;90.40;;;;;;5076188;28;20197;-86
2022/06/26 01:31:32;;;;;;;23.92;13.32;;;17.80;90.60;;;;;;5076165;28;20188;-86
2022/06/26 01:33:58;;;;;;;20.77;13.85;;;17.80;90.90;;;;;;5076112;28;20217;-86
2022/06/26 01:36:24;;;;;;;17.17;14.15;;;17.70;91.00;;;;;;5076696;28;20569;-87
2022/06/26 01:38:50;;;;;;;15.95;12.82;;;17.60;91.20;;;;;;5076061;28;20182;-86
2022/06/26 01:41:15;;;;;;;21.52;13.15;;;17.60;91.30;;;;;;5075879;28;20225;-86
2022/06/26 01:43:41;;;;;;;22.63;13.50;;;17.60;91.50;;;;;;5076180;28;20183;-86
2022/06/26 01:46:07;;;;;;;18.85;13.13;;;17.50;91.60;;;;;;5075909;28;20539;-87
2022/06/26 01:48:34;;;;;;;17.92;13.52;;;17.50;91.50;;;;;;5075580;28;20172;-86
2022/06/26 01:51:01;;;;;;;21.10;13.65;;;17.50;91.60;;;;;;5075551;28;20194;-87
2022/06/26 01:53:28;;;;;;;22.70;13.93;;;17.60;91.60;;;;;;5075712;28;20168;-87
2022/06/26 01:55:54;;;;;;;27.77;14.07;;;17.50;91.60;;;;;;5075663;28;20171;-86
2022/06/26 01:58:20;;;;;;;21.70;14.35;;;17.50;91.50;;;;;;5075710;28;20206;-87
2022/06/26 02:00:47;;;;;;;27.33;14.98;;;17.40;91.60;;;;;;5075366;28;20696;-86
2022/06/26 02:03:14;;;;;;;24.27;14.38;;;17.40;91.70;;;;;;5075570;28;20694;-87
2022/06/26 02:05:40;;;;;;;19.77;14.43;;;17.40;91.80;;;;;;5075925;28;20226;-86
2022/06/26 02:08:06;;;;;;;21.27;12.35;;;17.50;91.80;;;;;;5075563;28;20261;-86
2022/06/26 02:16:03;;;;;;;21.92;13.85;;;17.50;91.60;;;;;;5075632;28;20181;-87
2022/06/26 02:18:29;;;;;;;21.98;13.95;;;17.70;91.60;;;;;;5075449;28;20190;-86
2022/06/26 02:20:55;;;;;;;16.15;14.45;;;17.70;91.60;;;;;;5075259;28;20187;-86
2022/06/26 02:23:21;;;;;;;19.25;14.68;;;17.60;91.60;;;;;;5075252;28;20167;-86
2022/06/26 02:25:47;;;;;;;23.60;15.20;;;17.50;91.60;;;;;;5074830;28;20225;-86
2022/06/26 02:28:16;;;;;;;28.27;15.00;;;17.50;91.70;;;;;;5073032;28;20172;-86
2022/06/26 02:30:41;;;;;;;19.45;14.63;;;17.40;91.80;;;;;;5074457;28;20187;-86
2022/06/26 02:33:08;;;;;;;29.65;15.13;;;17.30;91.70;;;;;;5073716;28;20190;-86
2022/06/26 02:35:34;;;;;;;26.60;15.55;;;17.20;91.80;;;;;;5073891;28;20220;-86
2022/06/26 02:37:59;;;;;;;26.23;16.25;;;17.20;92.00;;;;;;5074625;28;20216;-86
2022/06/26 02:40:27;;;;;;;21.38;14.80;;;17.10;92.10;;;;;;5072462;28;20649;-86
2022/06/26 02:42:53;;;;;;;31.17;15.18;;;17.10;92.20;;;;;;5074548;28;20190;-87
2022/06/26 02:45:19;;;;;;;24.52;13.45;;;17.20;92.20;;;;;;5074237;28;20199;-86
2022/06/26 02:47:46;;;;;;;17.38;12.90;;;17.20;92.20;;;;;;5074762;28;20167;-86
2022/06/26 02:50:12;;;;;;;23.23;15.20;;;17.20;92.00;;;;;;5074407;28;20257;-86
2022/06/26 02:52:38;;;;;;;28.75;13.77;;;17.10;91.90;;;;;;5074518;28;20186;-86
2022/06/26 02:55:05;;;;;;;30.40;15.70;;;17.20;91.90;;;;;;5074524;28;20518;-86
2022/06/26 02:57:31;;;;;;;21.55;14.65;;;17.20;91.90;;;;;;5074552;28;20194;-86
2022/06/26 02:59:56;;;;;;;32.55;16.08;;;17.10;91.90;;;;;;5074500;28;20191;-87
2022/06/26 03:02:24;;;;;;;19.67;15.70;;;17.10;91.90;;;;;;5074702;28;20254;-86
2022/06/26 03:04:52;;;;;;;25.05;16.13;;;16.90;92.00;;;;;;5074648;28;20201;-87
2022/06/26 03:07:18;;;;;;;24.90;15.77;;;16.90;92.20;;;;;;5074645;28;20221;-86
2022/06/26 03:09:44;;;;;;;31.92;16.42;;;16.90;92.30;;;;;;5073732;28;20179;-86
2022/06/26 03:12:09;;;;;;;19.77;16.80;;;16.90;92.30;;;;;;5074418;28;20172;-87
2022/06/26 03:14:35;;;;;;;23.65;17.95;;;16.80;92.40;;;;;;5074766;28;20171;-86
2022/06/26 03:17:01;;;;;;;26.40;17.48;;;17.00;92.70;;;;;;5074374;28;20543;-86
2022/06/26 03:19:27;;;;;;;25.88;17.40;;;17.00;92.80;;;;;;5074473;28;20179;-86
2022/06/26 03:21:53;;;;;;;35.03;18.77;;;17.00;93.00;;;;;;5074135;28;20672;-86
2022/06/26 03:24:18;;;;;;;26.65;19.33;;;17.10;93.10;;;;;;5074285;28;20202;-86
2022/06/26 03:26:44;;;;;;;22.95;16.50;;;17.10;93.10;;;;;;5074055;28;20171;-87
2022/06/26 03:29:11;;;;;;;21.25;14.90;;;17.10;93.10;;;;;;5074435;28;20175;-86
2022/06/26 03:31:37;;;;;;;23.23;15.43;;;17.20;93.10;;;;;;5074374;28;20199;-86
2022/06/26 03:34:03;;;;;;;18.33;16.25;;;17.20;93.10;;;;;;5074884;28;20638;-87
2022/06/26 03:36:29;;;;;;;22.45;16.05;;;17.20;93.00;;;;;;5074345;28;20168;-86
2022/06/26 03:38:55;;;;;;;32.35;16.75;;;17.20;93.00;;;;;;5074087;28;20613;-87
2022/06/26 03:41:20;;;;;;;32.63;17.10;;;17.10;93.00;;;;;;5073996;28;20210;-86
2022/06/26 03:43:46;;;;;;;30.50;17.98;;;17.10;93.10;;;;;;5074122;28;20183;-86
2022/06/26 03:46:13;;;;;;;20.48;16.33;;;17.20;93.20;;;;;;5074265;28;20544;-86
2022/06/26 03:48:38;;;;;;;20.15;14.63;;;17.20;93.20;;;;;;5074261;28;20164;-86
2022/06/26 03:51:04;;;;;;;20.95;13.95;;;17.20;93.10;;;;;;5074035;28;20203;-87
2022/06/26 03:53:31;;;;;;;23.38;14.85;;;17.30;93.00;;;;;;5074290;28;20168;-87
2022/06/26 03:55:57;;;;;;;19.17;16.73;;;17.30;93.00;;;;;;5073837;28;20175;-86
2022/06/26 03:58:23;;;;;;;25.58;16.63;;;17.50;93.10;;;;;;5072632;28;20648;-86
2022/06/26 04:00:49;;;;;;;24.95;16.80;;;17.60;93.20;;;;;;5074347;28;20244;-86
2022/06/26 04:03:16;;;;;;;23.67;16.58;;;17.70;93.20;;;;;;5074177;28;20172;-86
2022/06/26 04:05:41;;;;;;;20.60;15.43;;;17.70;93.20;;;;;;5073915;28;20253;-86
2022/06/26 04:08:07;;;;;;;20.38;14.68;;;17.80;93.20;;;;;;5073928;28;20167;-86
2022/06/26 04:10:34;;;;;;;19.67;14.32;;;17.90;93.10;;;;;;5073938;28;20191;-86
2022/06/26 04:13:01;;;;;;;16.42;12.98;;;18.00;93.00;;;;;;5073602;28;20210;-86
2022/06/26 04:15:28;;;;;;;13.25;12.00;;;18.00;92.70;;;;;;5073604;28;20183;-86
2022/06/26 04:17:54;;;;;;;15.45;12.15;;;18.10;92.60;;;;;;5073958;28;20583;-86
2022/06/26 04:20:20;;;;;;;14.50;11.18;;;18.10;92.30;;;;;;5074622;28;20192;-86
2022/06/26 04:22:58;;;;;;;16.52;12.07;;;18.10;92.10;;;;;;5077500;28;20171;-86
2022/06/26 04:25:23;;;;;;;13.68;10.95;;;18.20;91.80;;;;;;5078131;28;20190;-86
2022/06/26 04:27:50;;;;;;;18.23;12.05;;;18.20;91.50;;;;;;5076410;28;20550;-86
2022/06/26 04:30:16;;;;;;;16.80;14.20;;;18.20;91.20;;;;;;5077056;28;20179;-87
2022/06/26 04:32:42;;;;;;;20.30;14.93;;;18.30;91.20;;;;;;5077380;28;20250;-87
2022/06/26 04:35:09;;;;;;;21.67;14.30;;;18.50;91.50;;;;;;5077612;28;20213;-87
2022/06/26 04:37:36;;;;;;;20.65;15.48;;;18.60;91.80;;;;;;5077446;28;20174;-86
2022/06/26 04:40:02;;;;;;;20.08;15.98;;;18.70;92.00;;;;;;5077294;28;20187;-87
2022/06/26 04:42:28;;;;;;;22.25;16.48;;;18.70;92.20;;;;;;5077354;28;20179;-86
2022/06/26 04:44:53;;;;;;;22.75;16.98;;;18.70;92.40;;;;;;5077018;28;20213;-87
2022/06/26 04:47:19;;;;;;;20.92;16.90;;;18.70;92.50;;;;;;5075784;28;20263;-86
2022/06/26 04:49:45;;;;;;;23.73;17.13;;;18.80;92.60;;;;;;5076981;28;20190;-86
2022/06/26 04:52:10;;;;;;;20.13;16.02;;;18.80;92.70;;;;;;5077368;28;20168;-87
2022/06/26 04:54:36;;;;;;;19.98;14.65;;;18.80;92.70;;;;;;5075564;28;20183;-86
2022/06/26 04:57:01;;;;;;;17.65;14.65;;;18.80;92.70;;;;;;5076500;28;20202;-87
2022/06/26 04:59:27;;;;;;;18.17;15.25;;;18.80;92.70;;;;;;5077363;28;20187;-86
2022/06/26 05:01:52;;;;;;;17.13;14.73;;;18.90;92.70;;;;;;5076827;28;20196;-87
2022/06/26 05:04:18;;;;;;;20.35;15.90;;;19.00;92.80;;;;;;5076637;28;20199;-86
2022/06/26 05:06:43;;;;;;;17.00;15.23;;;19.20;92.80;;;;;;5076798;28;20175;-87
2022/06/26 05:09:09;;;;;;;17.00;15.18;;;19.20;92.80;;;;;;5076427;28;20163;-88
2022/06/26 05:11:34;;;;;;;17.55;14.27;;;19.30;92.70;;;;;;5076655;28;20198;-87
2022/06/26 05:14:00;;;;;;;17.85;13.48;;;19.40;92.80;;;;;;5076750;28;20175;-87
2022/06/26 05:16:26;;;;;;;16.20;14.50;;;19.50;92.70;;;;;;5076456;28;20217;-87
2022/06/26 05:18:51;;;;;;;18.00;12.57;;;19.60;92.70;;;;;;5076449;28;20228;-87
2022/06/26 05:21:17;;;;;;;15.85;12.00;;;19.70;92.50;;;;;;5076329;28;20570;-87
2022/06/26 05:23:43;;;;;;;15.68;11.38;;;19.80;92.20;;;;;;5076486;28;20633;-87
2022/06/26 05:26:08;;;;;;;11.75;10.57;;;19.80;91.80;;;;;;5076101;28;20207;-87
2022/06/26 05:28:34;;;;;;;11.38;10.05;;;19.80;91.50;;;;;;5076063;28;20167;-86
2022/06/26 05:30:59;;;;;;;13.52;10.93;;;19.90;91.30;;;;;;5075889;28;20187;-86
2022/06/26 05:33:25;;;;;;;12.52;9.40;;;20.10;90.90;;;;;;5075375;28;20209;-87
2022/06/26 05:35:51;;;;;;;11.18;9.48;;;20.30;90.80;;;;;;5075711;28;20179;-87
2022/06/26 05:38:16;;;;;;;11.75;9.40;;;20.30;90.40;;;;;;5075678;28;20651;-86
2022/06/26 05:40:42;;;;;;;10.68;9.55;;;20.40;90.10;;;;;;5075609;28;20195;-87
2022/06/26 05:43:07;;;;;;;10.15;9.15;;;20.40;89.70;;;;;;5075863;28;20175;-87
2022/06/26 05:45:33;;;;;;;14.38;8.57;;;20.50;89.50;;;;;;5075300;28;20218;-87
2022/06/26 05:47:58;;;;;;;10.02;8.93;;;20.60;89.40;;;;;;5075416;28;20547;-87
2022/06/26 05:50:24;;;;;;;10.32;9.32;;;20.60;89.10;;;;;;5075329;28;20229;-86
2022/06/26 05:52:50;;;;;;;12.60;8.60;;;20.60;88.80;;;;;;5075594;28;20637;-86
2022/06/26 05:55:16;;;;;;;9.98;8.75;;;20.60;88.50;;;;;;5075062;28;20175;-87
2022/06/26 05:57:42;;;;;;;9.25;8.40;;;20.60;88.40;;;;;;5074645;28;20240;-87
2022/06/26 06:00:08;;;;;;;9.90;8.90;;;20.60;88.10;;;;;;5074437;28;20198;-87
2022/06/26 06:02:34;;;;;;;10.05;8.82;;;20.60;87.70;;;;;;5074873;28;20172;-86
2022/06/26 06:05:00;;;;;;;9.13;8.10;;;20.70;87.80;;;;;;5074456;28;20191;-86
2022/06/26 06:07:27;;;;;;;10.23;7.53;;;20.70;87.40;;;;;;5074581;28;20167;-85
2022/06/26 06:09:52;;;;;;;8.52;7.70;;;20.70;87.30;;;;;;5074707;28;20167;-86
2022/06/26 06:12:18;;;;;;;11.52;8.30;;;20.80;87.00;;;;;;5074608;28;20229;-86
2022/06/26 06:14:44;;;;;;;9.23;7.93;;;20.80;86.70;;;;;;5074293;28;20167;-86
2022/06/26 06:19:55;;;;;;;6.95;6.32;;;21.10;85.80;;;;;;5074600;28;20201;-86
2022/06/26 06:22:20;;;;;;;8.32;6.03;;;21.20;84.30;;;;;;5074110;28;20570;-86
2022/06/26 06:24:46;;;;;;;6.28;5.68;;;21.40;84.30;;;;;;5074210;28;20195;-87
2022/06/26 06:27:12;;;;;;;6.43;5.70;;;21.70;82.80;;;;;;5074113;28;20652;-86
2022/06/26 06:29:38;;;;;;;7.70;5.70;;;21.80;81.80;;;;;;5072774;28;20225;-86
2022/06/26 06:32:04;;;;;;;10.15;5.43;;;21.90;80.40;;;;;;5074224;28;20179;-86
2022/06/26 06:34:29;;;;;;;11.00;5.32;;;21.90;79.20;;;;;;5074428;28;20168;-86
2022/06/26 06:36:55;;;;;;;6.10;5.07;;;22.00;79.20;;;;;;5074142;28;20171;-86
2022/06/26 06:39:21;;;;;;;5.78;5.28;;;22.20;78.20;;;;;;5073898;28;20179;-87
2022/06/26 06:41:46;;;;;;;5.78;5.18;;;22.20;78.20;;;;;;5073836;28;20215;-86
2022/06/26 06:44:12;;;;;;;6.32;5.15;;;22.20;78.80;;;;;;5074111;28;20203;-87
2022/06/26 06:46:37;;;;;;;6.53;5.70;;;22.10;77.10;;;;;;5073955;28;20250;-86
2022/06/26 06:49:03;;;;;;;7.30;5.03;;;22.20;78.60;;;;;;5074219;28;20625;-86
2022/06/26 06:51:28;;;;;;;5.78;5.30;;;22.20;77.50;;;;;;5073889;28;20179;-86
2022/06/26 06:53:54;;;;;;;7.68;5.47;;;22.40;78.40;;;;;;5073948;28;20313;-86
2022/06/26 06:56:20;;;;;;;10.93;5.75;;;22.30;78.00;;;;;;5073789;28;20266;-86
2022/06/26 06:58:45;;;;;;;6.65;5.18;;;22.20;77.50;;;;;;5073796;28;20679;-87
2022/06/26 07:01:11;;;;;;;10.60;5.47;;;22.20;77.90;;;;;;5073541;28;20198;-87
2022/06/26 07:03:36;;;;;;;6.43;5.07;;;22.20;78.40;;;;;;5073698;28;20179;-87
2022/06/26 07:06:02;;;;;;;8.63;5.32;;;22.40;77.80;;;;;;5073462;28;20191;-87
2022/06/26 07:08:27;;;;;;;9.77;5.50;;;22.60;77.50;;;;;;5073514;28;20168;-87
2022/06/26 07:10:53;;;;;;;7.45;5.38;;;22.70;76.90;;;;;;5072214;28;20191;-88
2022/06/26 07:13:18;;;;;;;10.38;5.32;;;22.70;75.70;;;;;;5073955;28;20165;-87
2022/06/26 07:15:44;;;;;;;7.88;5.80;;;22.70;76.30;;;;;;5072513;28;20592;-87
2022/06/26 07:18:10;;;;;;;6.38;5.30;;;22.90;77.30;;;;;;5073688;28;20267;-87
2022/06/26 07:20:35;;;;;;;10.05;5.38;;;23.10;76.30;;;;;;5073468;28;20221;-87
2022/06/26 07:23:01;;;;;;;4.95;4.55;;;23.20;76.20;;;;;;5073509;28;20182;-87
2022/06/26 07:25:27;;;;;;;5.13;3.92;;;23.70;75.70;;;;;;5073301;28;20240;-87
2022/06/26 07:27:52;;;;;;;6.35;2.90;;;24.00;70.70;;;;;;5073298;28;20179;-87
2022/06/26 07:30:19;;;;;;;4.95;3.00;;;24.10;70.90;;;;;;5073325;28;20234;-87
2022/06/26 07:32:45;;;;;;;5.28;3.35;;;24.30;68.40;;;;;;5073107;28;20174;-87
2022/06/26 07:35:11;;;;;;;6.53;3.25;;;24.60;68.20;;;;;;5073110;28;20172;-87
2022/06/26 07:37:37;;;;;;;5.55;2.80;;;24.90;68.60;;;;;;5071832;28;20260;-87
2022/06/26 07:40:04;;;;;;;5.82;3.25;;;24.80;66.70;;;;;;5073254;28;20194;-87
2022/06/26 07:42:30;;;;;;;3.55;2.63;;;24.70;66.50;;;;;;5073509;28;20172;-88
2022/06/26 07:44:55;;;;;;;4.13;2.78;;;24.80;66.60;;;;;;5073229;28;20538;-87
2022/06/26 07:47:21;;;;;;;6.47;3.10;;;24.70;65.90;;;;;;5073109;28;20163;-87
2022/06/26 07:49:46;;;;;;;4.43;3.00;;;24.60;66.30;;;;;;5073097;28;20182;-86
2022/06/26 07:52:12;;;;;;;4.13;3.00;;;24.40;66.50;;;;;;5073054;28;20182;-86
2022/06/26 07:54:38;;;;;;;5.38;3.03;;;24.30;66.40;;;;;;5072945;28;20599;-85
2022/06/26 07:57:03;;;;;;;6.30;2.80;;;24.20;67.20;;;;;;5076817;28;20191;-85
2022/06/26 07:59:29;;;;;;;6.00;3.20;;;24.00;69.10;;;;;;5076948;28;20184;-87
2022/06/26 08:01:55;;;;;;;4.03;3.13;;;24.10;69.70;;;;;;5077047;28;20191;-86
2022/06/26 08:04:20;;;;;;;5.68;3.22;;;24.00;68.80;;;;;;5076857;28;20291;-86
2022/06/26 08:06:46;;;;;;;6.88;2.90;;;24.10;69.20;;;;;;5077240;28;20179;-86
2022/06/26 08:09:11;;;;;;;4.35;3.08;;;24.20;68.10;;;;;;5076933;28;20174;-86
2022/06/26 08:11:37;;;;;;;3.63;3.33;;;24.50;67.40;;;;;;5077111;28;20233;-86
2022/06/26 08:14:02;;;;;;;8.95;3.08;;;24.80;67.00;;;;;;5076745;28;20175;-87
2022/06/26 08:16:28;;;;;;;5.95;3.10;;;25.10;65.40;;;;;;5076679;28;20167;-86
2022/06/26 08:18:54;;;;;;;6.15;2.85;;;25.20;65.70;;;;;;5076771;28;20160;-86
2022/06/26 08:24:04;;;;;;;8.98;3.15;;;25.20;62.50;;;;;;5076916;28;20346;-86
2022/06/26 08:26:29;;;;;;;9.15;2.67;;;25.20;64.30;;;;;;5076411;28;20250;-87
2022/06/26 08:28:55;;;;;;;2.92;2.63;;;25.20;61.80;;;;;;5075136;28;20175;-86
2022/06/26 08:31:20;;;;;;;5.22;2.80;;;25.30;62.40;;;;;;5076375;28;20191;-87
2022/06/26 08:33:46;;;;;;;3.33;3.00;;;25.40;63.90;;;;;;5076481;28;20179;-87
2022/06/26 08:36:11;;;;;;;4.35;2.90;;;25.50;63.50;;;;;;5076587;28;20569;-87
2022/06/26 08:38:39;;;;;;;4.40;3.30;;;25.60;64.80;;;;;;5076578;28;20197;-87
2022/06/26 08:41:07;;;;;;;7.47;3.42;;;25.70;65.20;;;;;;5076480;28;20199;-87
2022/06/26 08:43:34;;;;;;;8.88;3.60;;;25.60;63.50;;;;;;5076510;28;20262;-87
2022/06/26 08:46:04;;;;;;;5.70;3.83;;;25.50;62.90;;;;;;5076588;28;20199;-85
2022/06/26 08:48:40;;;;;;;4.43;3.60;;;25.30;63.10;;;;;;5075737;28;20229;-87
2022/06/26 08:51:08;;;;;;;5.07;4.57;;;25.50;62.70;;;;;;5076223;28;20612;-86
2022/06/26 08:53:34;;;;;;;5.38;3.53;;;25.60;63.90;;;;;;5075993;28;20544;-85
2022/06/26 08:56:01;;;;;;;3.83;3.53;;;25.60;62.70;;;;;;5075912;28;20225;-87
2022/06/26 08:58:26;;;;;;;6.40;3.83;;;25.70;63.30;;;;;;5075865;28;20174;-87
2022/06/26 09:00:53;;;;;;;6.95;3.80;;;25.70;63.00;;;;;;5076215;28;20590;-87
2022/06/26 09:03:18;;;;;;;9.35;3.80;;;25.70;62.90;;;;;;5076846;28;20198;-87
2022/06/26 09:05:44;;;;;;;8.85;3.72;;;25.70;63.30;;;;;;5076287;28;20564;-86
2022/06/26 09:08:20;;;;;;;5.15;4.18;;;26.30;63.90;;;;;;5074683;28;20203;-86
2022/06/26 09:10:47;;;;;;;6.85;4.05;;;25.60;62.60;;;;;;5076355;28;20183;-87
2022/06/26 09:13:13;;;;;;;6.28;3.90;;;25.40;65.00;;;;;;5075542;28;20168;-87
2022/06/26 09:15:40;;;;;;;5.43;4.75;;;25.70;66.20;;;;;;5075619;28;20167;-86
2022/06/26 09:18:07;;;;;;;9.05;4.47;;;25.70;63.10;;;;;;5075621;28;20685;-86
2022/06/26 09:20:52;;;;;;;7.25;3.75;;;25.60;65.50;;;;;;5075215;28;20677;-87
2022/06/26 09:23:18;;;;;;;5.05;3.83;;;26.00;64.90;;;;;;5074220;28;20209;-86
2022/06/26 09:25:45;;;;;;;6.47;4.40;;;25.80;63.70;;;;;;5076305;28;20253;-87
2022/06/26 09:28:15;;;;;;;7.70;4.53;;;25.90;64.50;;;;;;5074637;28;20180;-87
2022/06/26 09:30:58;;;;;;;5.95;4.50;;;26.40;61.30;;;;;;5075327;28;20187;-86
2022/06/26 09:33:30;;;;;;;9.32;5.80;;;25.80;63.20;;;;;;5075652;28;20156;-86
2022/06/26 09:35:57;;;;;;;7.80;5.50;;;25.90;61.60;;;;;;5075700;28;20525;-86
2022/06/26 09:38:25;;;;;;;8.23;6.95;;;25.60;65.40;;;;;;5074413;28;20266;-86
2022/06/26 09:40:55;;;;;;;16.23;6.30;;;25.10;65.30;;;;;;5075775;28;20560;-87
2022/06/26 09:43:32;;;;;;;6.90;5.25;;;25.10;66.60;;;;;;5075518;28;20312;-87
2022/06/26 09:46:06;;;;;;;8.70;5.78;;;25.20;66.30;;;;;;5075132;28;20191;-86
2022/06/26 09:48:33;;;;;;;10.40;4.93;;;25.10;63.40;;;;;;5075323;28;20166;-86
2022/06/26 09:51:02;;;;;;;11.73;4.68;;;25.20;65.10;;;;;;5075051;28;20188;-86
2022/06/26 09:53:30;;;;;;;9.35;5.63;;;25.60;65.60;;;;;;5075357;28;20220;-86
2022/06/26 09:55:57;;;;;;;10.95;5.22;;;25.70;64.10;;;;;;5074799;28;20167;-87
2022/06/26 09:58:24;;;;;;;6.43;4.93;;;25.70;64.60;;;;;;5075220;28;20166;-86
2022/06/26 10:06:28;;;;;;;6.82;6.15;;;25.70;65.50;;;;;;5074816;28;20194;-86
2022/06/26 10:08:56;;;;;;;10.05;6.82;;;25.50;65.60;;;;;;5074694;28;20614;-86
2022/06/26 10:11:27;;;;;;;11.52;7.50;;;25.60;65.30;;;;;;5075389;28;20657;-87
2022/06/26 10:13:57;;;;;;;12.27;6.80;;;25.60;65.50;;;;;;5074850;28;20179;-86
2022/06/26 10:16:35;;;;;;;11.82;7.53;;;25.80;65.70;;;;;;5076602;28;20167;-86
2022/06/26 10:19:19;;;;;;;9.23;6.65;;;26.30;66.10;;;;;;5074877;28;20160;-88
2022/06/26 10:21:46;;;;;;;9.05;6.43;;;26.30;65.50;;;;;;5074401;28;20191;-88
2022/06/26 10:24:12;;;;;;;7.60;6.07;;;26.20;65.20;;;;;;5074540;28;20178;-88
2022/06/26 10:26:38;;;;;;;8.45;6.82;;;26.30;64.90;;;;;;5074887;28;20538;-88
2022/06/26 10:29:06;;;;;;;13.23;8.30;;;26.10;64.30;;;;;;5074544;28;20641;-88
2022/06/26 10:31:49;;;;;;;17.35;7.45;;;25.80;64.60;;;;;;5075181;28;20249;-87
2022/06/26 10:34:20;;;;;;;8.38;7.07;;;25.80;65.80;;;;;;5074555;28;20277;-87
2022/06/26 10:37:13;;;;;;;9.02;7.10;;;26.10;65.30;;;;;;5075074;28;20213;-87
2022/06/26 10:39:40;;;;;;;9.63;7.57;;;26.40;65.00;;;;;;5075170;28;20223;-86
2022/06/26 10:45:11;;;;;;;10.90;8.68;;;26.20;64.40;;;;;;5077257;28;20194;-86
2022/06/26 10:47:46;;;;;;;10.63;8.30;;;26.20;66.60;;;;;;5075978;28;20163;-87
2022/06/26 10:50:24;;;;;;;9.57;8.00;;;26.60;65.30;;;;;;5076981;28;20279;-86
2022/06/26 10:52:50;;;;;;;9.45;7.63;;;27.00;64.70;;;;;;5076877;28;20633;-87
2022/06/26 10:55:15;;;;;;;7.80;6.72;;;27.50;62.90;;;;;;5077273;28;20254;-87
2022/06/26 10:57:41;;;;;;;7.82;5.40;;;27.30;63.90;;;;;;5076251;28;20601;-87
2022/06/26 11:00:12;;;;;;;7.35;6.47;;;27.40;64.40;;;;;;5076660;28;20206;-86
2022/06/26 11:02:40;;;;;;;6.85;6.07;;;27.20;64.10;;;;;;5075568;28;20156;-86
2022/06/26 11:05:08;;;;;;;6.07;4.78;;;27.00;64.00;;;;;;5074755;28;20191;-86
2022/06/26 11:08:00;;;;;;;10.43;5.50;;;26.90;65.60;;;;;;5075263;28;20232;-86
2022/06/26 11:10:27;;;;;;;7.63;6.10;;;27.70;63.00;;;;;;5074390;28;20697;-86
2022/06/26 11:12:53;;;;;;;8.23;6.05;;;27.90;61.40;;;;;;5073956;28;20167;-86
2022/06/26 11:15:26;;;;;;;5.70;4.63;;;28.00;61.10;;;;;;5073968;28;20171;-86
2022/06/26 11:17:54;;;;;;;6.93;5.72;;;28.20;61.20;;;;;;5073654;28;20156;-86
2022/06/26 11:23:16;;;;;;;6.78;5.55;;;27.50;62.40;;;;;;5073636;28;20174;-86
2022/06/26 11:25:42;;;;;;;7.03;5.22;;;27.50;61.30;;;;;;5073228;28;20190;-86
2022/06/26 11:28:09;;;;;;;8.32;6.15;;;26.80;63.40;;;;;;5073450;28;20174;-86
2022/06/26 11:30:39;;;;;;;6.30;5.72;;;26.90;63.20;;;;;;5072573;28;20264;-87
2022/06/26 11:33:06;;;;;;;9.50;5.93;;;26.90;64.70;;;;;;5073452;28;20163;-86
2022/06/26 11:35:33;;;;;;;11.88;6.93;;;27.20;63.40;;;;;;5073232;28;20171;-86
2022/06/26 11:38:07;;;;;;;9.82;7.05;;;27.40;61.00;;;;;;5073373;28;20220;-86
2022/06/26 11:40:34;;;;;;;5.68;4.90;;;27.00;62.10;;;;;;5073386;28;20760;-86
2022/06/26 11:42:59;;;;;;;8.93;6.55;;;26.70;64.50;;;;;;5073715;28;20180;-87
2022/06/26 11:45:26;;;;;;;7.03;5.40;;;27.10;64.60;;;;;;5073875;28;20282;-86
2022/06/26 11:47:53;;;;;;;5.43;4.93;;;27.60;61.30;;;;;;5073478;28;20171;-86
2022/06/26 11:50:20;;;;;;;7.03;4.40;;;27.70;62.80;;;;;;5073782;28;20557;-87
2022/06/26 11:52:56;;;;;;;5.35;3.38;;;27.70;63.60;;;;;;5073535;28;20164;-87
2022/06/26 11:55:22;;;;;;;7.72;3.72;;;27.80;62.80;;;;;;5073675;28;20155;-87
2022/06/26 11:57:48;;;;;;;5.90;3.65;;;28.00;61.90;;;;;;5073092;28;20217;-86
2022/06/26 12:00:18;;;;;;;7.28;4.10;;;27.80;60.90;;;;;;5073108;28;20244;-87
2022/06/26 12:02:51;;;;;;;6.05;3.53;;;27.70;62.00;;;;;;5073361;28;20254;-87
2022/06/26 12:05:27;;;;;;;5.05;2.92;;;27.90;61.90;;;;;;5073308;28;20195;-87
2022/06/26 12:07:53;;;;;;;6.57;3.35;;;28.30;60.60;;;;;;5073366;28;20307;-86
2022/06/26 12:10:32;;;;;;;7.20;2.92;;;28.40;59.10;;;;;;5073252;28;20191;-87
2022/06/26 12:12:59;;;;;;;9.93;3.30;;;28.50;57.80;;;;;;5073549;28;20198;-86
2022/06/26 12:15:26;;;;;;;3.78;2.67;;;28.60;58.40;;;;;;5073549;28;20579;-86
2022/06/26 12:17:59;;;;;;;6.05;2.80;;;28.40;58.90;;;;;;5073883;28;20180;-86
2022/06/26 12:20:26;;;;;;;4.93;2.38;;;28.10;59.60;;;;;;5073266;28;20187;-86
2022/06/26 12:22:53;;;;;;;4.07;2.50;;;28.10;59.10;;;;;;5073057;28;20217;-86
2022/06/26 12:25:28;;;;;;;10.60;2.72;;;28.30;59.80;;;;;;5072968;28;20696;-86
2022/06/26 12:27:55;;;;;;;3.28;2.20;;;28.30;58.80;;;;;;5072613;28;20254;-86
2022/06/26 12:30:26;;;;;;;3.75;1.75;;;28.50;57.90;;;;;;5071603;28;20198;-87
2022/06/26 12:32:51;;;;;;;6.28;1.70;;;28.40;58.80;;;;;;5073029;28;20229;-86
2022/06/26 12:35:17;;;;;;;4.45;1.95;;;28.50;58.40;;;;;;5071482;28;20184;-85
2022/06/26 12:37:43;;;;;;;6.40;2.05;;;28.50;56.80;;;;;;5072995;28;20164;-87
2022/06/26 12:40:10;;;;;;;2.63;1.58;;;27.60;60.40;;;;;;5072687;28;20187;-86
2022/06/26 12:42:35;;;;;;;4.38;1.40;;;27.60;59.60;;;;;;5075604;28;20593;-86
2022/06/26 12:45:01;;;;;;;1.60;1.20;;;27.60;59.40;;;;;;5076532;28;20202;-85
2022/06/26 12:47:26;;;;;;;4.70;1.52;;;27.40;59.70;;;;;;5076513;28;20180;-85
2022/06/26 12:49:52;;;;;;;2.10;1.10;;;27.30;61.10;;;;;;5076222;28;20210;-86
2022/06/26 12:52:17;;;;;;;5.10;1.27;;;26.80;62.60;;;;;;5075160;28;20171;-86
2022/06/26 12:54:43;;;;;;;2.78;1.55;;;26.20;63.20;;;;;;5076025;28;20264;-86
2022/06/26 12:57:08;;;;;;;4.35;1.80;;;26.10;62.80;;;;;;5075848;28;20191;-86
2022/06/26 12:59:34;;;;;;;2.05;1.50;;;25.90;62.80;;;;;;5075904;28;20171;-86